sensor_id;sensor_type;location;lat;lon;timestamp;P1;durP1;ratioP1;P2;durP2;ratioP2
65469;SDS011;52067;50.710;14.492;2024-02-14T00:00:09;39.13;;;16.75;;
65469;SDS011;52067;50.710;14.492;2024-02-14T00:02:45;38.65;;;15.45;;
65469;SDS011;52067;50.710;14.492;2024-02-14T00:05:14;46.70;;;18.75;;
65469;SDS011;52067;50.710;14.492;2024-02-14T00:07:39;38.97;;;16.20;;
65469;SDS011;52067;50.710;14.492;2024-02-14T00:10:05;46.80;;;17.63;;
65469;SDS011;52067;50.710;14.492;2024-02-14T00:12:32;49.10;;;19.38;;
65469;SDS011;52067;50.710;14.492;2024-02-14T00:14:58;55.67;;;20.30;;
65469;SDS011;52067;50.710;14.492;2024-02-14T00:17:23;47.58;;;19.52;;
65469;SDS011;52067;50.710;14.492;2024-02-14T00:19:49;47.00;;;18.67;;
65469;SDS011;52067;50.710;14.492;2024-02-14T00:22:14;45.22;;;18.63;;
65469;SDS011;52067;50.710;14.492;2024-02-14T00:24:39;45.38;;;18.30;;
65469;SDS011;52067;50.710;14.492;2024-02-14T00:27:05;44.35;;;17.80;;
65469;SDS011;52067;50.710;14.492;2024-02-14T00:29:31;43.15;;;19.02;;
65469;SDS011;52067;50.710;14.492;2024-02-14T00:31:59;53.13;;;20.77;;
65469;SDS011;52067;50.710;14.492;2024-02-14T00:34:24;46.35;;;18.25;;
65469;SDS011;52067;50.710;14.492;2024-02-14T00:36:50;41.33;;;17.48;;
65469;SDS011;52067;50.710;14.492;2024-02-14T00:39:15;44.45;;;18.58;;
65469;SDS011;52067;50.710;14.492;2024-02-14T00:41:41;40.53;;;18.23;;
65469;SDS011;52067;50.710;14.492;2024-02-14T00:44:06;37.55;;;16.70;;
65469;SDS011;52067;50.710;14.492;2024-02-14T00:46:31;42.85;;;17.73;;
65469;SDS011;52067;50.710;14.492;2024-02-14T00:48:57;41.72;;;18.27;;
65469;SDS011;52067;50.710;14.492;2024-02-14T00:51:22;43.90;;;19.48;;
65469;SDS011;52067;50.710;14.492;2024-02-14T00:53:47;44.95;;;19.45;;
65469;SDS011;52067;50.710;14.492;2024-02-14T00:56:13;44.58;;;17.90;;
65469;SDS011;52067;50.710;14.492;2024-02-14T00:58:38;39.90;;;17.90;;
65469;SDS011;52067;50.710;14.492;2024-02-14T01:01:04;40.20;;;17.65;;
65469;SDS011;52067;50.710;14.492;2024-02-14T01:03:30;37.88;;;16.60;;
65469;SDS011;52067;50.710;14.492;2024-02-14T01:05:56;44.95;;;16.02;;
65469;SDS011;52067;50.710;14.492;2024-02-14T01:08:21;42.55;;;17.77;;
65469;SDS011;52067;50.710;14.492;2024-02-14T01:10:47;45.95;;;16.52;;
65469;SDS011;52067;50.710;14.492;2024-02-14T01:13:16;45.83;;;17.40;;
65469;SDS011;52067;50.710;14.492;2024-02-14T01:15:41;51.70;;;22.60;;
65469;SDS011;52067;50.710;14.492;2024-02-14T01:18:07;41.78;;;17.35;;
65469;SDS011;52067;50.710;14.492;2024-02-14T01:20:32;50.33;;;19.25;;
65469;SDS011;52067;50.710;14.492;2024-02-14T01:22:58;43.85;;;18.95;;
65469;SDS011;52067;50.710;14.492;2024-02-14T01:25:24;43.88;;;18.92;;
65469;SDS011;52067;50.710;14.492;2024-02-14T01:27:50;55.42;;;21.35;;
65469;SDS011;52067;50.710;14.492;2024-02-14T01:30:17;51.08;;;20.92;;
65469;SDS011;52067;50.710;14.492;2024-02-14T01:32:43;63.35;;;23.98;;
65469;SDS011;52067;50.710;14.492;2024-02-14T01:35:08;75.03;;;27.58;;
65469;SDS011;52067;50.710;14.492;2024-02-14T01:37:34;69.60;;;26.08;;
65469;SDS011;52067;50.710;14.492;2024-02-14T01:40:00;70.40;;;26.50;;
65469;SDS011;52067;50.710;14.492;2024-02-14T01:42:25;53.70;;;22.00;;
65469;SDS011;52067;50.710;14.492;2024-02-14T01:44:52;53.55;;;22.65;;
65469;SDS011;52067;50.710;14.492;2024-02-14T01:47:19;66.72;;;25.27;;
65469;SDS011;52067;50.710;14.492;2024-02-14T01:49:45;62.88;;;24.58;;
65469;SDS011;52067;50.710;14.492;2024-02-14T01:52:12;64.05;;;25.80;;
65469;SDS011;52067;50.710;14.492;2024-02-14T01:54:38;58.20;;;24.90;;
65469;SDS011;52067;50.710;14.492;2024-02-14T01:57:03;64.82;;;26.13;;
65469;SDS011;52067;50.710;14.492;2024-02-14T01:59:30;56.85;;;23.98;;
65469;SDS011;52067;50.710;14.492;2024-02-14T02:01:55;58.80;;;22.50;;
65469;SDS011;52067;50.710;14.492;2024-02-14T02:04:21;50.47;;;20.88;;
65469;SDS011;52067;50.710;14.492;2024-02-14T02:06:46;47.17;;;19.83;;
65469;SDS011;52067;50.710;14.492;2024-02-14T02:09:12;46.13;;;19.23;;
65469;SDS011;52067;50.710;14.492;2024-02-14T02:11:47;53.45;;;19.70;;
65469;SDS011;52067;50.710;14.492;2024-02-14T02:14:14;48.80;;;19.83;;
65469;SDS011;52067;50.710;14.492;2024-02-14T02:16:41;46.17;;;18.42;;
65469;SDS011;52067;50.710;14.492;2024-02-14T02:19:06;41.05;;;17.35;;
65469;SDS011;52067;50.710;14.492;2024-02-14T02:21:34;36.10;;;15.38;;
65469;SDS011;52067;50.710;14.492;2024-02-14T02:24:00;36.63;;;16.33;;
65469;SDS011;52067;50.710;14.492;2024-02-14T02:26:35;33.47;;;15.15;;
65469;SDS011;52067;50.710;14.492;2024-02-14T02:32:22;34.42;;;12.93;;
65469;SDS011;52067;50.710;14.492;2024-02-14T02:34:48;35.55;;;14.02;;
65469;SDS011;52067;50.710;14.492;2024-02-14T02:37:13;36.45;;;16.05;;
65469;SDS011;52067;50.710;14.492;2024-02-14T02:39:39;43.00;;;17.98;;
65469;SDS011;52067;50.710;14.492;2024-02-14T02:42:04;34.53;;;15.63;;
65469;SDS011;52067;50.710;14.492;2024-02-14T02:44:31;41.42;;;16.60;;
65469;SDS011;52067;50.710;14.492;2024-02-14T02:46:56;37.63;;;16.20;;
65469;SDS011;52067;50.710;14.492;2024-02-14T02:49:22;45.80;;;17.70;;
65469;SDS011;52067;50.710;14.492;2024-02-14T02:51:47;41.88;;;17.05;;
65469;SDS011;52067;50.710;14.492;2024-02-14T02:54:13;46.28;;;17.48;;
65469;SDS011;52067;50.710;14.492;2024-02-14T02:56:39;45.70;;;16.58;;
65469;SDS011;52067;50.710;14.492;2024-02-14T02:59:06;36.72;;;15.63;;
65469;SDS011;52067;50.710;14.492;2024-02-14T03:01:35;40.50;;;17.25;;
65469;SDS011;52067;50.710;14.492;2024-02-14T03:04:01;41.80;;;16.92;;
65469;SDS011;52067;50.710;14.492;2024-02-14T03:06:27;42.83;;;16.00;;
65469;SDS011;52067;50.710;14.492;2024-02-14T03:08:52;41.72;;;17.02;;
65469;SDS011;52067;50.710;14.492;2024-02-14T03:11:20;37.55;;;16.05;;
65469;SDS011;52067;50.710;14.492;2024-02-14T03:13:45;36.05;;;16.58;;
65469;SDS011;52067;50.710;14.492;2024-02-14T03:16:13;36.97;;;15.75;;
65469;SDS011;52067;50.710;14.492;2024-02-14T03:18:40;34.45;;;15.10;;
65469;SDS011;52067;50.710;14.492;2024-02-14T03:21:05;32.28;;;15.27;;
65469;SDS011;52067;50.710;14.492;2024-02-14T03:23:31;39.13;;;17.52;;
65469;SDS011;52067;50.710;14.492;2024-02-14T03:25:56;41.33;;;18.08;;
65469;SDS011;52067;50.710;14.492;2024-02-14T03:28:22;43.33;;;17.98;;
65469;SDS011;52067;50.710;14.492;2024-02-14T03:30:47;66.22;;;24.27;;
65469;SDS011;52067;50.710;14.492;2024-02-14T03:33:12;52.20;;;22.40;;
65469;SDS011;52067;50.710;14.492;2024-02-14T03:35:38;68.63;;;24.60;;
65469;SDS011;52067;50.710;14.492;2024-02-14T03:38:03;57.13;;;21.33;;
65469;SDS011;52067;50.710;14.492;2024-02-14T03:40:29;47.35;;;19.50;;
65469;SDS011;52067;50.710;14.492;2024-02-14T03:42:55;45.85;;;19.38;;
65469;SDS011;52067;50.710;14.492;2024-02-14T03:45:21;46.53;;;20.02;;
65469;SDS011;52067;50.710;14.492;2024-02-14T03:47:47;50.08;;;21.05;;
65469;SDS011;52067;50.710;14.492;2024-02-14T03:50:13;43.60;;;18.77;;
65469;SDS011;52067;50.710;14.492;2024-02-14T03:52:38;46.90;;;19.35;;
65469;SDS011;52067;50.710;14.492;2024-02-14T03:55:04;49.20;;;20.85;;
65469;SDS011;52067;50.710;14.492;2024-02-14T03:57:30;58.45;;;21.90;;
65469;SDS011;52067;50.710;14.492;2024-02-14T03:59:59;53.33;;;21.40;;
65469;SDS011;52067;50.710;14.492;2024-02-14T04:02:28;54.88;;;19.88;;
65469;SDS011;52067;50.710;14.492;2024-02-14T04:04:54;46.67;;;19.80;;
65469;SDS011;52067;50.710;14.492;2024-02-14T04:07:19;38.13;;;16.80;;
65469;SDS011;52067;50.710;14.492;2024-02-14T04:09:45;50.72;;;19.20;;
65469;SDS011;52067;50.710;14.492;2024-02-14T04:12:10;53.90;;;20.83;;
65469;SDS011;52067;50.710;14.492;2024-02-14T04:14:36;53.00;;;21.60;;
65469;SDS011;52067;50.710;14.492;2024-02-14T04:17:02;57.22;;;22.88;;
65469;SDS011;52067;50.710;14.492;2024-02-14T04:19:29;51.55;;;21.27;;
65469;SDS011;52067;50.710;14.492;2024-02-14T04:21:54;54.78;;;23.10;;
65469;SDS011;52067;50.710;14.492;2024-02-14T04:24:19;54.05;;;22.35;;
65469;SDS011;52067;50.710;14.492;2024-02-14T04:26:45;50.80;;;21.42;;
65469;SDS011;52067;50.710;14.492;2024-02-14T04:29:13;42.35;;;19.55;;
65469;SDS011;52067;50.710;14.492;2024-02-14T04:31:38;63.15;;;19.45;;
65469;SDS011;52067;50.710;14.492;2024-02-14T04:34:04;40.58;;;18.63;;
65469;SDS011;52067;50.710;14.492;2024-02-14T04:36:30;51.63;;;19.50;;
65469;SDS011;52067;50.710;14.492;2024-02-14T04:38:56;52.45;;;20.20;;
65469;SDS011;52067;50.710;14.492;2024-02-14T04:41:22;51.33;;;18.58;;
65469;SDS011;52067;50.710;14.492;2024-02-14T04:43:48;49.80;;;17.60;;
65469;SDS011;52067;50.710;14.492;2024-02-14T04:46:13;48.00;;;18.63;;
65469;SDS011;52067;50.710;14.492;2024-02-14T04:48:39;47.72;;;18.50;;
65469;SDS011;52067;50.710;14.492;2024-02-14T04:51:04;52.35;;;18.73;;
65469;SDS011;52067;50.710;14.492;2024-02-14T04:53:30;44.45;;;18.08;;
65469;SDS011;52067;50.710;14.492;2024-02-14T04:55:56;47.67;;;16.65;;
65469;SDS011;52067;50.710;14.492;2024-02-14T04:58:22;58.78;;;22.65;;
65469;SDS011;52067;50.710;14.492;2024-02-14T05:00:47;58.05;;;21.13;;
65469;SDS011;52067;50.710;14.492;2024-02-14T05:03:13;53.53;;;20.50;;
65469;SDS011;52067;50.710;14.492;2024-02-14T05:05:38;61.25;;;22.60;;
65469;SDS011;52067;50.710;14.492;2024-02-14T05:08:04;59.22;;;21.40;;
65469;SDS011;52067;50.710;14.492;2024-02-14T05:10:30;44.13;;;19.05;;
65469;SDS011;52067;50.710;14.492;2024-02-14T05:12:56;55.00;;;22.13;;
65469;SDS011;52067;50.710;14.492;2024-02-14T05:15:21;53.03;;;21.80;;
65469;SDS011;52067;50.710;14.492;2024-02-14T05:17:47;61.05;;;21.13;;
65469;SDS011;52067;50.710;14.492;2024-02-14T05:20:14;54.95;;;22.00;;
65469;SDS011;52067;50.710;14.492;2024-02-14T05:22:40;63.75;;;24.42;;
65469;SDS011;52067;50.710;14.492;2024-02-14T05:25:06;58.88;;;23.65;;
65469;SDS011;52067;50.710;14.492;2024-02-14T05:27:34;59.83;;;23.17;;
65469;SDS011;52067;50.710;14.492;2024-02-14T05:30:02;61.35;;;23.52;;
65469;SDS011;52067;50.710;14.492;2024-02-14T05:32:31;59.15;;;22.67;;
65469;SDS011;52067;50.710;14.492;2024-02-14T05:34:57;54.65;;;21.92;;
65469;SDS011;52067;50.710;14.492;2024-02-14T05:37:22;54.30;;;21.92;;
65469;SDS011;52067;50.710;14.492;2024-02-14T05:39:48;52.45;;;21.13;;
65469;SDS011;52067;50.710;14.492;2024-02-14T05:42:13;58.05;;;22.58;;
65469;SDS011;52067;50.710;14.492;2024-02-14T05:44:41;59.75;;;22.90;;
65469;SDS011;52067;50.710;14.492;2024-02-14T05:47:08;62.90;;;22.48;;
65469;SDS011;52067;50.710;14.492;2024-02-14T05:49:33;55.80;;;22.77;;
65469;SDS011;52067;50.710;14.492;2024-02-14T05:51:59;50.75;;;21.52;;
65469;SDS011;52067;50.710;14.492;2024-02-14T05:54:24;55.92;;;23.75;;
65469;SDS011;52067;50.710;14.492;2024-02-14T05:56:50;75.30;;;27.63;;
65469;SDS011;52067;50.710;14.492;2024-02-14T05:59:16;76.68;;;28.38;;
65469;SDS011;52067;50.710;14.492;2024-02-14T06:01:41;64.97;;;26.00;;
65469;SDS011;52067;50.710;14.492;2024-02-14T06:04:06;54.05;;;23.15;;
65469;SDS011;52067;50.710;14.492;2024-02-14T06:06:32;56.15;;;23.55;;
65469;SDS011;52067;50.710;14.492;2024-02-14T06:08:57;68.45;;;25.92;;
65469;SDS011;52067;50.710;14.492;2024-02-14T06:11:23;63.53;;;25.75;;
65469;SDS011;52067;50.710;14.492;2024-02-14T06:13:48;58.33;;;23.27;;
65469;SDS011;52067;50.710;14.492;2024-02-14T06:16:13;61.45;;;23.55;;
65469;SDS011;52067;50.710;14.492;2024-02-14T06:18:39;55.05;;;22.17;;
65469;SDS011;52067;50.710;14.492;2024-02-14T06:21:05;48.72;;;20.35;;
65469;SDS011;52067;50.710;14.492;2024-02-14T06:23:31;49.80;;;21.48;;
65469;SDS011;52067;50.710;14.492;2024-02-14T06:25:57;50.95;;;21.58;;
65469;SDS011;52067;50.710;14.492;2024-02-14T06:28:23;47.10;;;17.88;;
65469;SDS011;52067;50.710;14.492;2024-02-14T06:30:48;47.03;;;20.30;;
65469;SDS011;52067;50.710;14.492;2024-02-14T06:33:13;45.85;;;18.63;;
65469;SDS011;52067;50.710;14.492;2024-02-14T06:35:39;44.88;;;17.92;;
65469;SDS011;52067;50.710;14.492;2024-02-14T06:38:04;42.28;;;18.65;;
65469;SDS011;52067;50.710;14.492;2024-02-14T06:40:30;49.85;;;19.77;;
65469;SDS011;52067;50.710;14.492;2024-02-14T06:42:56;43.75;;;18.75;;
65469;SDS011;52067;50.710;14.492;2024-02-14T06:45:23;49.10;;;20.77;;
65469;SDS011;52067;50.710;14.492;2024-02-14T06:47:48;57.80;;;23.05;;
65469;SDS011;52067;50.710;14.492;2024-02-14T06:50:13;60.00;;;24.40;;
65469;SDS011;52067;50.710;14.492;2024-02-14T06:52:39;56.33;;;25.05;;
65469;SDS011;52067;50.710;14.492;2024-02-14T06:55:04;59.03;;;22.00;;
65469;SDS011;52067;50.710;14.492;2024-02-14T06:57:30;56.50;;;23.23;;
65469;SDS011;52067;50.710;14.492;2024-02-14T06:59:55;62.13;;;23.50;;
65469;SDS011;52067;50.710;14.492;2024-02-14T07:02:20;54.85;;;23.27;;
65469;SDS011;52067;50.710;14.492;2024-02-14T07:04:46;59.42;;;23.85;;
65469;SDS011;52067;50.710;14.492;2024-02-14T07:07:11;82.13;;;27.95;;
65469;SDS011;52067;50.710;14.492;2024-02-14T07:09:37;56.65;;;22.80;;
65469;SDS011;52067;50.710;14.492;2024-02-14T07:12:03;51.28;;;21.73;;
65469;SDS011;52067;50.710;14.492;2024-02-14T07:14:29;48.67;;;20.65;;
65469;SDS011;52067;50.710;14.492;2024-02-14T07:16:55;40.22;;;19.23;;
65469;SDS011;52067;50.710;14.492;2024-02-14T07:19:20;41.33;;;18.80;;
65469;SDS011;52067;50.710;14.492;2024-02-14T07:21:45;44.78;;;20.92;;
65469;SDS011;52067;50.710;14.492;2024-02-14T07:24:11;49.42;;;22.63;;
65469;SDS011;52067;50.710;14.492;2024-02-14T07:26:36;55.88;;;22.45;;
65469;SDS011;52067;50.710;14.492;2024-02-14T07:29:01;65.60;;;28.70;;
65469;SDS011;52067;50.710;14.492;2024-02-14T07:31:28;60.83;;;26.45;;
65469;SDS011;52067;50.710;14.492;2024-02-14T07:33:59;74.38;;;27.90;;
65469;SDS011;52067;50.710;14.492;2024-02-14T07:36:25;59.33;;;26.30;;
65469;SDS011;52067;50.710;14.492;2024-02-14T07:38:51;62.30;;;25.70;;
65469;SDS011;52067;50.710;14.492;2024-02-14T07:41:16;72.00;;;29.88;;
65469;SDS011;52067;50.710;14.492;2024-02-14T07:43:42;73.18;;;29.30;;
65469;SDS011;52067;50.710;14.492;2024-02-14T07:46:07;55.45;;;21.90;;
65469;SDS011;52067;50.710;14.492;2024-02-14T07:48:33;38.50;;;17.83;;
65469;SDS011;52067;50.710;14.492;2024-02-14T07:50:58;38.25;;;17.55;;
65469;SDS011;52067;50.710;14.492;2024-02-14T07:53:24;34.45;;;16.00;;
65469;SDS011;52067;50.710;14.492;2024-02-14T07:55:50;29.08;;;14.57;;
65469;SDS011;52067;50.710;14.492;2024-02-14T07:58:16;28.48;;;14.88;;
65469;SDS011;52067;50.710;14.492;2024-02-14T08:00:41;30.35;;;15.30;;
65469;SDS011;52067;50.710;14.492;2024-02-14T08:03:07;30.80;;;15.18;;
65469;SDS011;52067;50.710;14.492;2024-02-14T08:05:33;33.70;;;15.90;;
65469;SDS011;52067;50.710;14.492;2024-02-14T08:07:58;31.80;;;15.30;;
65469;SDS011;52067;50.710;14.492;2024-02-14T08:10:24;35.10;;;16.13;;
65469;SDS011;52067;50.710;14.492;2024-02-14T08:12:49;32.92;;;15.45;;
65469;SDS011;52067;50.710;14.492;2024-02-14T08:15:15;35.92;;;17.40;;
65469;SDS011;52067;50.710;14.492;2024-02-14T08:17:40;31.33;;;14.73;;
65469;SDS011;52067;50.710;14.492;2024-02-14T08:20:06;39.22;;;16.55;;
65469;SDS011;52067;50.710;14.492;2024-02-14T08:22:32;33.72;;;17.13;;
65469;SDS011;52067;50.710;14.492;2024-02-14T08:24:58;39.83;;;17.73;;
65469;SDS011;52067;50.710;14.492;2024-02-14T08:27:23;36.65;;;16.88;;
65469;SDS011;52067;50.710;14.492;2024-02-14T08:29:49;33.88;;;16.40;;
65469;SDS011;52067;50.710;14.492;2024-02-14T08:32:14;34.63;;;17.40;;
65469;SDS011;52067;50.710;14.492;2024-02-14T08:34:40;37.35;;;16.60;;
65469;SDS011;52067;50.710;14.492;2024-02-14T08:37:05;28.88;;;15.48;;
65469;SDS011;52067;50.710;14.492;2024-02-14T08:39:31;36.90;;;15.38;;
65469;SDS011;52067;50.710;14.492;2024-02-14T08:41:57;34.50;;;14.95;;
65469;SDS011;52067;50.710;14.492;2024-02-14T08:44:22;32.80;;;15.32;;
65469;SDS011;52067;50.710;14.492;2024-02-14T08:46:47;25.92;;;14.05;;
65469;SDS011;52067;50.710;14.492;2024-02-14T08:49:14;31.48;;;14.52;;
65469;SDS011;52067;50.710;14.492;2024-02-14T08:51:39;26.40;;;12.88;;
65469;SDS011;52067;50.710;14.492;2024-02-14T08:54:05;29.02;;;14.38;;
65469;SDS011;52067;50.710;14.492;2024-02-14T08:56:31;25.63;;;12.68;;
65469;SDS011;52067;50.710;14.492;2024-02-14T08:58:59;33.30;;;13.95;;
65469;SDS011;52067;50.710;14.492;2024-02-14T09:01:26;27.17;;;13.23;;
65469;SDS011;52067;50.710;14.492;2024-02-14T09:03:51;32.03;;;15.90;;
65469;SDS011;52067;50.710;14.492;2024-02-14T09:06:17;28.10;;;14.23;;
65469;SDS011;52067;50.710;14.492;2024-02-14T09:08:45;25.75;;;13.13;;
65469;SDS011;52067;50.710;14.492;2024-02-14T09:11:11;26.27;;;13.80;;
65469;SDS011;52067;50.710;14.492;2024-02-14T09:13:37;28.73;;;14.38;;
65469;SDS011;52067;50.710;14.492;2024-02-14T09:16:04;25.52;;;14.32;;
65469;SDS011;52067;50.710;14.492;2024-02-14T09:18:30;27.75;;;14.18;;
65469;SDS011;52067;50.710;14.492;2024-02-14T09:20:56;30.55;;;15.00;;
65469;SDS011;52067;50.710;14.492;2024-02-14T09:23:22;34.20;;;15.57;;
65469;SDS011;52067;50.710;14.492;2024-02-14T09:25:48;31.65;;;15.23;;
65469;SDS011;52067;50.710;14.492;2024-02-14T09:28:15;30.52;;;15.07;;
65469;SDS011;52067;50.710;14.492;2024-02-14T09:30:41;33.50;;;15.57;;
65469;SDS011;52067;50.710;14.492;2024-02-14T09:33:06;31.92;;;14.95;;
65469;SDS011;52067;50.710;14.492;2024-02-14T09:35:32;32.28;;;14.23;;
65469;SDS011;52067;50.710;14.492;2024-02-14T09:37:57;33.28;;;15.38;;
65469;SDS011;52067;50.710;14.492;2024-02-14T09:40:22;34.70;;;15.95;;
65469;SDS011;52067;50.710;14.492;2024-02-14T09:42:55;28.55;;;14.75;;
65469;SDS011;52067;50.710;14.492;2024-02-14T09:45:26;32.80;;;15.25;;
65469;SDS011;52067;50.710;14.492;2024-02-14T09:47:53;36.08;;;15.18;;
65469;SDS011;52067;50.710;14.492;2024-02-14T09:50:19;32.20;;;15.23;;
65469;SDS011;52067;50.710;14.492;2024-02-14T09:52:46;27.75;;;13.32;;
65469;SDS011;52067;50.710;14.492;2024-02-14T09:55:16;29.73;;;13.68;;
65469;SDS011;52067;50.710;14.492;2024-02-14T09:57:42;28.40;;;14.50;;
65469;SDS011;52067;50.710;14.492;2024-02-14T10:00:11;29.40;;;14.57;;
65469;SDS011;52067;50.710;14.492;2024-02-14T10:02:39;34.45;;;15.15;;
65469;SDS011;52067;50.710;14.492;2024-02-14T10:05:05;28.83;;;13.43;;
65469;SDS011;52067;50.710;14.492;2024-02-14T10:07:39;25.10;;;13.27;;
65469;SDS011;52067;50.710;14.492;2024-02-14T10:10:06;26.60;;;13.85;;
65469;SDS011;52067;50.710;14.492;2024-02-14T10:12:32;32.67;;;15.65;;
65469;SDS011;52067;50.710;14.492;2024-02-14T10:14:57;44.63;;;20.33;;
65469;SDS011;52067;50.710;14.492;2024-02-14T10:17:23;22.33;;;12.45;;
65469;SDS011;52067;50.710;14.492;2024-02-14T10:19:55;24.98;;;12.80;;
65469;SDS011;52067;50.710;14.492;2024-02-14T10:22:21;27.55;;;12.07;;
65469;SDS011;52067;50.710;14.492;2024-02-14T10:24:46;25.42;;;12.63;;
65469;SDS011;52067;50.710;14.492;2024-02-14T10:27:12;23.13;;;11.43;;
65469;SDS011;52067;50.710;14.492;2024-02-14T10:29:37;27.38;;;13.85;;
65469;SDS011;52067;50.710;14.492;2024-02-14T10:32:03;27.50;;;12.15;;
65469;SDS011;52067;50.710;14.492;2024-02-14T10:34:29;27.83;;;14.07;;
65469;SDS011;52067;50.710;14.492;2024-02-14T10:36:56;26.27;;;13.52;;
65469;SDS011;52067;50.710;14.492;2024-02-14T10:39:23;26.55;;;13.20;;
65469;SDS011;52067;50.710;14.492;2024-02-14T10:41:51;25.75;;;12.80;;
65469;SDS011;52067;50.710;14.492;2024-02-14T10:44:16;23.55;;;12.02;;
65469;SDS011;52067;50.710;14.492;2024-02-14T10:46:42;31.75;;;12.93;;
65469;SDS011;52067;50.710;14.492;2024-02-14T10:49:11;26.73;;;12.73;;
65469;SDS011;52067;50.710;14.492;2024-02-14T10:51:40;25.63;;;13.15;;
65469;SDS011;52067;50.710;14.492;2024-02-14T10:54:09;35.22;;;14.18;;
65469;SDS011;52067;50.710;14.492;2024-02-14T10:56:38;28.25;;;13.48;;
65469;SDS011;52067;50.710;14.492;2024-02-14T10:59:06;26.52;;;14.10;;
65469;SDS011;52067;50.710;14.492;2024-02-14T11:01:33;34.90;;;16.98;;
65469;SDS011;52067;50.710;14.492;2024-02-14T11:04:00;29.25;;;14.75;;
65469;SDS011;52067;50.710;14.492;2024-02-14T11:06:27;26.73;;;12.93;;
65469;SDS011;52067;50.710;14.492;2024-02-14T11:11:29;29.40;;;12.65;;
65469;SDS011;52067;50.710;14.492;2024-02-14T11:13:55;26.95;;;13.30;;
65469;SDS011;52067;50.710;14.492;2024-02-14T11:16:25;23.58;;;12.23;;
65469;SDS011;52067;50.710;14.492;2024-02-14T11:18:53;20.85;;;10.27;;
65469;SDS011;52067;50.710;14.492;2024-02-14T11:21:30;20.90;;;11.23;;
65469;SDS011;52067;50.710;14.492;2024-02-14T11:23:55;19.40;;;10.25;;
65469;SDS011;52067;50.710;14.492;2024-02-14T11:26:21;21.20;;;12.00;;
65469;SDS011;52067;50.710;14.492;2024-02-14T11:28:48;21.63;;;11.55;;
65469;SDS011;52067;50.710;14.492;2024-02-14T11:31:16;18.83;;;10.88;;
65469;SDS011;52067;50.710;14.492;2024-02-14T11:33:42;23.98;;;12.50;;
65469;SDS011;52067;50.710;14.492;2024-02-14T11:36:11;24.08;;;10.82;;
65469;SDS011;52067;50.710;14.492;2024-02-14T11:38:40;26.98;;;12.45;;
65469;SDS011;52067;50.710;14.492;2024-02-14T11:41:06;19.38;;;10.88;;
65469;SDS011;52067;50.710;14.492;2024-02-14T11:43:32;19.73;;;10.20;;
65469;SDS011;52067;50.710;14.492;2024-02-14T11:45:57;17.48;;;10.45;;
65469;SDS011;52067;50.710;14.492;2024-02-14T11:48:23;19.13;;;10.82;;
65469;SDS011;52067;50.710;14.492;2024-02-14T11:50:49;19.02;;;10.32;;
65469;SDS011;52067;50.710;14.492;2024-02-14T11:53:16;19.02;;;10.48;;
65469;SDS011;52067;50.710;14.492;2024-02-14T11:55:43;21.00;;;9.80;;
65469;SDS011;52067;50.710;14.492;2024-02-14T11:58:11;24.50;;;11.80;;
65469;SDS011;52067;50.710;14.492;2024-02-14T12:00:38;19.63;;;9.88;;
65469;SDS011;52067;50.710;14.492;2024-02-14T12:03:22;17.40;;;8.98;;
65469;SDS011;52067;50.710;14.492;2024-02-14T12:05:49;20.17;;;9.85;;
65469;SDS011;52067;50.710;14.492;2024-02-14T12:08:16;20.02;;;9.48;;
65469;SDS011;52067;50.710;14.492;2024-02-14T12:10:43;20.98;;;11.13;;
65469;SDS011;52067;50.710;14.492;2024-02-14T12:13:12;21.33;;;10.07;;
65469;SDS011;52067;50.710;14.492;2024-02-14T12:15:42;19.35;;;10.02;;
65469;SDS011;52067;50.710;14.492;2024-02-14T12:18:10;20.38;;;10.73;;
65469;SDS011;52067;50.710;14.492;2024-02-14T12:20:36;20.75;;;10.52;;
65469;SDS011;52067;50.710;14.492;2024-02-14T12:23:02;22.85;;;11.90;;
65469;SDS011;52067;50.710;14.492;2024-02-14T12:25:29;18.80;;;10.45;;
65469;SDS011;52067;50.710;14.492;2024-02-14T12:27:56;17.02;;;9.48;;
65469;SDS011;52067;50.710;14.492;2024-02-14T12:30:22;26.88;;;10.18;;
65469;SDS011;52067;50.710;14.492;2024-02-14T12:33:05;15.32;;;8.85;;
65469;SDS011;52067;50.710;14.492;2024-02-14T12:35:34;17.33;;;9.65;;
65469;SDS011;52067;50.710;14.492;2024-02-14T12:38:05;19.15;;;10.98;;
65469;SDS011;52067;50.710;14.492;2024-02-14T12:40:34;22.40;;;12.05;;
65469;SDS011;52067;50.710;14.492;2024-02-14T12:43:00;22.90;;;10.60;;
65469;SDS011;52067;50.710;14.492;2024-02-14T12:45:26;20.13;;;10.68;;
65469;SDS011;52067;50.710;14.492;2024-02-14T12:47:51;19.00;;;9.20;;
65469;SDS011;52067;50.710;14.492;2024-02-14T12:50:18;19.40;;;10.20;;
65469;SDS011;52067;50.710;14.492;2024-02-14T12:52:45;20.05;;;9.32;;
65469;SDS011;52067;50.710;14.492;2024-02-14T12:55:11;18.40;;;9.75;;
65469;SDS011;52067;50.710;14.492;2024-02-14T12:57:37;22.20;;;10.70;;
65469;SDS011;52067;50.710;14.492;2024-02-14T13:00:03;21.63;;;10.77;;
65469;SDS011;52067;50.710;14.492;2024-02-14T13:02:37;19.85;;;9.23;;
65469;SDS011;52067;50.710;14.492;2024-02-14T13:05:05;24.35;;;10.25;;
65469;SDS011;52067;50.710;14.492;2024-02-14T13:07:32;17.38;;;8.82;;
65469;SDS011;52067;50.710;14.492;2024-02-14T13:09:57;21.38;;;7.95;;
65469;SDS011;52067;50.710;14.492;2024-02-14T13:12:23;14.15;;;7.90;;
65469;SDS011;52067;50.710;14.492;2024-02-14T13:14:48;19.30;;;8.80;;
65469;SDS011;52067;50.710;14.492;2024-02-14T13:17:14;14.63;;;7.78;;
65469;SDS011;52067;50.710;14.492;2024-02-14T13:19:39;16.70;;;8.38;;
65469;SDS011;52067;50.710;14.492;2024-02-14T13:22:07;18.38;;;8.32;;
65469;SDS011;52067;50.710;14.492;2024-02-14T13:24:33;16.08;;;8.38;;
65469;SDS011;52067;50.710;14.492;2024-02-14T13:26:58;20.90;;;9.65;;
65469;SDS011;52067;50.710;14.492;2024-02-14T13:29:24;18.40;;;9.40;;
65469;SDS011;52067;50.710;14.492;2024-02-14T13:31:50;24.88;;;11.70;;
65469;SDS011;52067;50.710;14.492;2024-02-14T13:34:16;25.08;;;11.02;;
65469;SDS011;52067;50.710;14.492;2024-02-14T13:36:43;26.48;;;11.35;;
65469;SDS011;52067;50.710;14.492;2024-02-14T13:39:09;22.70;;;9.32;;
65469;SDS011;52067;50.710;14.492;2024-02-14T13:41:34;27.83;;;10.85;;
65469;SDS011;52067;50.710;14.492;2024-02-14T13:44:02;21.13;;;10.20;;
65469;SDS011;52067;50.710;14.492;2024-02-14T13:46:28;20.25;;;9.85;;
65469;SDS011;52067;50.710;14.492;2024-02-14T13:48:55;16.73;;;8.50;;
65469;SDS011;52067;50.710;14.492;2024-02-14T13:51:20;19.23;;;9.73;;
65469;SDS011;52067;50.710;14.492;2024-02-14T13:53:46;17.77;;;9.00;;
65469;SDS011;52067;50.710;14.492;2024-02-14T13:56:12;15.82;;;8.63;;
65469;SDS011;52067;50.710;14.492;2024-02-14T13:58:37;19.17;;;10.70;;
65469;SDS011;52067;50.710;14.492;2024-02-14T14:01:03;22.77;;;9.30;;
65469;SDS011;52067;50.710;14.492;2024-02-14T14:03:29;18.63;;;8.98;;
65469;SDS011;52067;50.710;14.492;2024-02-14T14:05:55;20.15;;;9.40;;
65469;SDS011;52067;50.710;14.492;2024-02-14T14:08:22;24.13;;;9.80;;
65469;SDS011;52067;50.710;14.492;2024-02-14T14:10:48;26.65;;;10.50;;